Terminal Aerodrome Forecast
Issued by NWS

Current Version | Previous Version | Graphics & Text | Print | Product List | Glossary On
Versions: 1 2 3 4 5 6 7 8 9 10 11 12 13 14 15 16 17 18 19 20 21 22
000
FTUS41 KILN 281720
TAFLCK
TAF
KLCK 281720Z 2818/2918 12008KT 6SM -SHRA VCTS BKN050CB OVC080
      TEMPO 2819/2823 3SM TSRA BR
     FM290100 12007KT P6SM VCTS OVC050CB
     FM290300 11005KT 6SM BR BKN040
     FM290500 10003KT 4SM BR BKN015
     FM290800 VRB03KT 2SM BR OVC006
      TEMPO 2908/2912 1/2SM FG
     FM291500 06005KT 4SM BR OVC012=

USA.gov is the U.S. government's official web portal to all federal, state and local government web resources and services.